sensor_id;sensor_type;location;lat;lon;timestamp;temperature;humidity
52739;DHT22;52466;40.122;18.318;2022-10-17T00:02:12;15.50;94.50
52739;DHT22;52466;40.122;18.318;2022-10-17T00:05:20;15.50;94.50
52739;DHT22;52466;40.122;18.318;2022-10-17T00:08:28;15.50;94.50
52739;DHT22;52466;40.122;18.318;2022-10-17T00:11:35;15.50;94.50
52739;DHT22;52466;40.122;18.318;2022-10-17T00:14:43;15.50;94.50
52739;DHT22;52466;40.122;18.318;2022-10-17T00:17:51;15.50;94.60
52739;DHT22;52466;40.122;18.318;2022-10-17T00:20:58;15.40;94.40
52739;DHT22;52466;40.122;18.318;2022-10-17T00:24:06;15.30;94.50
52739;DHT22;52466;40.122;18.318;2022-10-17T00:27:14;15.30;94.60
52739;DHT22;52466;40.122;18.318;2022-10-17T00:30:22;15.40;94.60
52739;DHT22;52466;40.122;18.318;2022-10-17T00:33:31;15.30;94.70
52739;DHT22;52466;40.122;18.318;2022-10-17T00:36:38;15.30;94.70
52739;DHT22;52466;40.122;18.318;2022-10-17T00:39:46;15.30;94.70
52739;DHT22;52466;40.122;18.318;2022-10-17T00:42:54;15.30;94.70
52739;DHT22;52466;40.122;18.318;2022-10-17T00:46:01;15.30;94.80
52739;DHT22;52466;40.122;18.318;2022-10-17T00:49:10;15.20;94.80
52739;DHT22;52466;40.122;18.318;2022-10-17T00:52:21;15.30;94.90
52739;DHT22;52466;40.122;18.318;2022-10-17T00:55:33;15.30;94.90
52739;DHT22;52466;40.122;18.318;2022-10-17T00:58:42;15.30;94.70
52739;DHT22;52466;40.122;18.318;2022-10-17T01:02:00;15.30;94.60
52739;DHT22;52466;40.122;18.318;2022-10-17T01:05:08;15.30;94.70
52739;DHT22;52466;40.122;18.318;2022-10-17T01:08:17;15.40;94.70
52739;DHT22;52466;40.122;18.318;2022-10-17T01:27:59;15.20;95.10
52739;DHT22;52466;40.122;18.318;2022-10-17T01:31:15;15.20;95.20
52739;DHT22;52466;40.122;18.318;2022-10-17T01:34:37;15.10;95.20
52739;DHT22;52466;40.122;18.318;2022-10-17T01:38:10;15.20;95.20
52739;DHT22;52466;40.122;18.318;2022-10-17T01:44:54;15.40;95.10
52739;DHT22;52466;40.122;18.318;2022-10-17T01:48:12;15.30;95.00
52739;DHT22;52466;40.122;18.318;2022-10-17T01:51:26;15.40;94.90
52739;DHT22;52466;40.122;18.318;2022-10-17T01:54:41;15.30;95.00
52739;DHT22;52466;40.122;18.318;2022-10-17T01:57:58;15.30;95.10
52739;DHT22;52466;40.122;18.318;2022-10-17T02:01:09;15.30;95.20
52739;DHT22;52466;40.122;18.318;2022-10-17T02:04:17;15.30;95.30
52739;DHT22;52466;40.122;18.318;2022-10-17T02:07:25;15.20;95.40
52739;DHT22;52466;40.122;18.318;2022-10-17T02:20:50;15.20;95.30
52739;DHT22;52466;40.122;18.318;2022-10-17T02:30:42;14.90;95.20
52739;DHT22;52466;40.122;18.318;2022-10-17T02:34:00;14.80;95.20
52739;DHT22;52466;40.122;18.318;2022-10-17T02:37:11;14.90;95.30
52739;DHT22;52466;40.122;18.318;2022-10-17T02:40:23;14.90;95.20
52739;DHT22;52466;40.122;18.318;2022-10-17T02:43:34;14.90;95.20
52739;DHT22;52466;40.122;18.318;2022-10-17T02:46:50;14.90;95.00
52739;DHT22;52466;40.122;18.318;2022-10-17T02:50:02;14.90;94.80
52739;DHT22;52466;40.122;18.318;2022-10-17T02:53:16;14.90;94.80
52739;DHT22;52466;40.122;18.318;2022-10-17T02:56:30;14.90;94.80
52739;DHT22;52466;40.122;18.318;2022-10-17T02:59:41;14.90;94.70
52739;DHT22;52466;40.122;18.318;2022-10-17T03:02:52;15.00;94.70
52739;DHT22;52466;40.122;18.318;2022-10-17T03:06:00;14.80;94.70
52739;DHT22;52466;40.122;18.318;2022-10-17T03:09:08;14.80;94.70
52739;DHT22;52466;40.122;18.318;2022-10-17T03:12:16;14.80;94.80
52739;DHT22;52466;40.122;18.318;2022-10-17T03:15:24;14.80;94.80
52739;DHT22;52466;40.122;18.318;2022-10-17T03:18:31;14.80;94.80
52739;DHT22;52466;40.122;18.318;2022-10-17T03:21:39;14.70;94.90
52739;DHT22;52466;40.122;18.318;2022-10-17T03:24:47;14.80;94.90
52739;DHT22;52466;40.122;18.318;2022-10-17T03:27:58;14.80;94.70
52739;DHT22;52466;40.122;18.318;2022-10-17T03:31:13;14.80;94.60
52739;DHT22;52466;40.122;18.318;2022-10-17T03:34:21;14.70;94.50
52739;DHT22;52466;40.122;18.318;2022-10-17T03:37:29;14.60;94.60
52739;DHT22;52466;40.122;18.318;2022-10-17T03:40:37;14.70;94.50
52739;DHT22;52466;40.122;18.318;2022-10-17T03:43:46;14.70;94.50
52739;DHT22;52466;40.122;18.318;2022-10-17T03:46:53;14.60;94.50
52739;DHT22;52466;40.122;18.318;2022-10-17T03:50:01;14.60;94.60
52739;DHT22;52466;40.122;18.318;2022-10-17T03:53:11;14.60;94.70
52739;DHT22;52466;40.122;18.318;2022-10-17T03:56:24;14.60;94.70
52739;DHT22;52466;40.122;18.318;2022-10-17T03:59:36;14.70;94.60
52739;DHT22;52466;40.122;18.318;2022-10-17T04:02:49;14.60;94.40
52739;DHT22;52466;40.122;18.318;2022-10-17T04:06:01;14.60;94.40
52739;DHT22;52466;40.122;18.318;2022-10-17T04:09:11;14.60;94.10
52739;DHT22;52466;40.122;18.318;2022-10-17T04:12:28;14.60;94.30
52739;DHT22;52466;40.122;18.318;2022-10-17T04:15:36;14.60;94.00
52739;DHT22;52466;40.122;18.318;2022-10-17T04:18:43;14.60;94.10
52739;DHT22;52466;40.122;18.318;2022-10-17T04:21:51;14.70;94.00
52739;DHT22;52466;40.122;18.318;2022-10-17T04:25:01;14.70;94.00
52739;DHT22;52466;40.122;18.318;2022-10-17T04:28:12;14.70;93.80
52739;DHT22;52466;40.122;18.318;2022-10-17T04:31:20;14.80;93.80
52739;DHT22;52466;40.122;18.318;2022-10-17T04:34:41;14.80;93.80
52739;DHT22;52466;40.122;18.318;2022-10-17T04:37:50;14.80;93.80
52739;DHT22;52466;40.122;18.318;2022-10-17T04:40:59;14.90;93.80
52739;DHT22;52466;40.122;18.318;2022-10-17T04:44:09;14.90;93.70
52739;DHT22;52466;40.122;18.318;2022-10-17T04:47:23;14.90;93.70
52739;DHT22;52466;40.122;18.318;2022-10-17T04:50:31;14.80;93.70
52739;DHT22;52466;40.122;18.318;2022-10-17T04:54:03;14.80;93.80
52739;DHT22;52466;40.122;18.318;2022-10-17T04:57:14;14.90;94.10
52739;DHT22;52466;40.122;18.318;2022-10-17T05:00:38;14.80;94.30
52739;DHT22;52466;40.122;18.318;2022-10-17T05:03:52;14.80;94.30
52739;DHT22;52466;40.122;18.318;2022-10-17T05:06:59;14.70;94.60
52739;DHT22;52466;40.122;18.318;2022-10-17T05:10:16;14.80;94.70
52739;DHT22;52466;40.122;18.318;2022-10-17T05:13:26;14.80;94.70
52739;DHT22;52466;40.122;18.318;2022-10-17T05:16:34;14.90;94.80
52739;DHT22;52466;40.122;18.318;2022-10-17T05:19:43;14.90;94.70
52739;DHT22;52466;40.122;18.318;2022-10-17T05:22:52;14.90;94.80
52739;DHT22;52466;40.122;18.318;2022-10-17T05:26:03;14.90;94.70
52739;DHT22;52466;40.122;18.318;2022-10-17T05:29:12;15.10;94.90
52739;DHT22;52466;40.122;18.318;2022-10-17T05:32:25;15.10;94.80
52739;DHT22;52466;40.122;18.318;2022-10-17T05:35:33;15.20;94.60
52739;DHT22;52466;40.122;18.318;2022-10-17T05:38:41;15.20;94.40
52739;DHT22;52466;40.122;18.318;2022-10-17T05:41:49;15.20;94.30
52739;DHT22;52466;40.122;18.318;2022-10-17T05:44:58;15.50;94.40
52739;DHT22;52466;40.122;18.318;2022-10-17T05:48:07;15.60;94.30
52739;DHT22;52466;40.122;18.318;2022-10-17T05:51:15;15.60;94.00
52739;DHT22;52466;40.122;18.318;2022-10-17T05:54:23;15.60;93.90
52739;DHT22;52466;40.122;18.318;2022-10-17T05:57:31;15.80;93.80
52739;DHT22;52466;40.122;18.318;2022-10-17T06:00:34;16.00;93.40
52739;DHT22;52466;40.122;18.318;2022-10-17T06:03:42;16.00;93.20
52739;DHT22;52466;40.122;18.318;2022-10-17T06:06:50;16.50;92.30
52739;DHT22;52466;40.122;18.318;2022-10-17T06:09:58;16.80;91.40
52739;DHT22;52466;40.122;18.318;2022-10-17T06:13:06;17.40;89.20
52739;DHT22;52466;40.122;18.318;2022-10-17T06:16:14;19.10;85.00
52739;DHT22;52466;40.122;18.318;2022-10-17T06:19:22;19.00;84.00
52739;DHT22;52466;40.122;18.318;2022-10-17T06:22:30;20.00;81.70
52739;DHT22;52466;40.122;18.318;2022-10-17T06:25:42;21.90;72.80
52739;DHT22;52466;40.122;18.318;2022-10-17T06:28:50;20.70;77.30
52739;DHT22;52466;40.122;18.318;2022-10-17T06:32:04;22.00;73.20
52739;DHT22;52466;40.122;18.318;2022-10-17T06:35:12;23.80;67.40
52739;DHT22;52466;40.122;18.318;2022-10-17T06:38:20;25.80;60.60
52739;DHT22;52466;40.122;18.318;2022-10-17T06:41:30;26.00;59.30
52739;DHT22;52466;40.122;18.318;2022-10-17T06:44:41;26.70;58.10
52739;DHT22;52466;40.122;18.318;2022-10-17T06:48:11;25.50;62.30
52739;DHT22;52466;40.122;18.318;2022-10-17T06:51:28;27.80;57.90
52739;DHT22;52466;40.122;18.318;2022-10-17T06:54:36;30.00;49.80
52739;DHT22;52466;40.122;18.318;2022-10-17T06:58:02;25.20;61.50
52739;DHT22;52466;40.122;18.318;2022-10-17T07:01:36;28.00;55.00
52739;DHT22;52466;40.122;18.318;2022-10-17T07:04:45;29.90;51.40
52739;DHT22;52466;40.122;18.318;2022-10-17T07:07:54;31.40;47.20
52739;DHT22;52466;40.122;18.318;2022-10-17T07:11:15;30.70;46.90
52739;DHT22;52466;40.122;18.318;2022-10-17T07:14:25;31.10;46.90
52739;DHT22;52466;40.122;18.318;2022-10-17T07:17:38;31.00;47.20
52739;DHT22;52466;40.122;18.318;2022-10-17T07:20:53;31.70;46.20
52739;DHT22;52466;40.122;18.318;2022-10-17T07:24:02;29.40;51.30
52739;DHT22;52466;40.122;18.318;2022-10-17T07:27:10;25.80;61.90
52739;DHT22;52466;40.122;18.318;2022-10-17T07:30:19;23.80;69.00
52739;DHT22;52466;40.122;18.318;2022-10-17T07:33:33;23.90;70.80
52739;DHT22;52466;40.122;18.318;2022-10-17T07:36:41;23.60;72.20
52739;DHT22;52466;40.122;18.318;2022-10-17T07:39:49;24.10;71.20
52739;DHT22;52466;40.122;18.318;2022-10-17T07:42:57;23.90;71.00
52739;DHT22;52466;40.122;18.318;2022-10-17T07:46:05;24.10;71.10
52739;DHT22;52466;40.122;18.318;2022-10-17T07:49:14;23.60;72.20
52739;DHT22;52466;40.122;18.318;2022-10-17T07:52:22;22.80;74.50
52739;DHT22;52466;40.122;18.318;2022-10-17T07:55:30;22.00;78.30
52739;DHT22;52466;40.122;18.318;2022-10-17T07:58:38;22.00;78.40
52739;DHT22;52466;40.122;18.318;2022-10-17T08:01:46;22.40;78.70
52739;DHT22;52466;40.122;18.318;2022-10-17T08:04:53;22.70;76.50
52739;DHT22;52466;40.122;18.318;2022-10-17T08:08:01;22.30;77.10
52739;DHT22;52466;40.122;18.318;2022-10-17T08:11:12;22.10;78.90
52739;DHT22;52466;40.122;18.318;2022-10-17T08:14:20;21.90;78.80
52739;DHT22;52466;40.122;18.318;2022-10-17T08:17:28;22.10;78.70
